sensor_id;sensor_type;location;lat;lon;timestamp;pressure;altitude;pressure_sealevel;temperature;humidity
24486;BME280;13449;49.374;8.584;2023-03-14T00:00:03;98726.06;;;10.71;100.00
24486;BME280;13449;49.374;8.584;2023-03-14T00:02:34;98732.78;;;10.68;100.00
24486;BME280;13449;49.374;8.584;2023-03-14T00:05:02;98729.94;;;10.63;100.00
24486;BME280;13449;49.374;8.584;2023-03-14T00:07:34;98734.56;;;10.63;100.00
24486;BME280;13449;49.374;8.584;2023-03-14T00:10:03;98742.81;;;10.75;100.00
24486;BME280;13449;49.374;8.584;2023-03-14T00:12:31;98741.28;;;10.79;100.00
24486;BME280;13449;49.374;8.584;2023-03-14T00:14:58;98725.97;;;10.78;100.00
24486;BME280;13449;49.374;8.584;2023-03-14T00:17:26;98729.06;;;10.81;100.00
24486;BME280;13449;49.374;8.584;2023-03-14T00:19:53;98719.78;;;10.71;100.00
24486;BME280;13449;49.374;8.584;2023-03-14T00:22:21;98739.91;;;10.70;100.00
24486;BME280;13449;49.374;8.584;2023-03-14T00:24:47;98732.78;;;10.68;100.00
24486;BME280;13449;49.374;8.584;2023-03-14T00:27:14;98721.38;;;10.78;100.00
24486;BME280;13449;49.374;8.584;2023-03-14T00:29:42;98720.53;;;10.78;100.00
24486;BME280;13449;49.374;8.584;2023-03-14T00:32:16;98713.69;;;10.87;100.00
24486;BME280;13449;49.374;8.584;2023-03-14T00:34:42;98704.81;;;10.91;100.00
24486;BME280;13449;49.374;8.584;2023-03-14T00:37:09;98707.50;;;11.09;100.00
24486;BME280;13449;49.374;8.584;2023-03-14T00:39:35;98710.91;;;11.05;100.00
24486;BME280;13449;49.374;8.584;2023-03-14T00:42:02;98710.44;;;11.08;100.00
24486;BME280;13449;49.374;8.584;2023-03-14T00:44:28;98708.88;;;11.00;100.00
24486;BME280;13449;49.374;8.584;2023-03-14T00:46:55;98700.91;;;10.99;100.00
24486;BME280;13449;49.374;8.584;2023-03-14T00:49:21;98702.59;;;11.00;100.00
24486;BME280;13449;49.374;8.584;2023-03-14T00:51:48;98702.22;;;10.96;100.00
24486;BME280;13449;49.374;8.584;2023-03-14T00:54:14;98690.94;;;10.93;100.00
24486;BME280;13449;49.374;8.584;2023-03-14T00:56:41;98702.94;;;11.03;100.00
24486;BME280;13449;49.374;8.584;2023-03-14T00:59:10;98706.03;;;11.07;100.00
24486;BME280;13449;49.374;8.584;2023-03-14T01:01:37;98712.44;;;11.01;100.00
24486;BME280;13449;49.374;8.584;2023-03-14T01:04:08;98714.56;;;10.99;100.00
24486;BME280;13449;49.374;8.584;2023-03-14T01:06:39;98702.59;;;11.00;100.00
24486;BME280;13449;49.374;8.584;2023-03-14T01:09:06;98705.94;;;11.02;100.00
24486;BME280;13449;49.374;8.584;2023-03-14T01:11:34;98716.94;;;11.07;100.00
24486;BME280;13449;49.374;8.584;2023-03-14T01:14:02;98695.75;;;11.09;100.00
24486;BME280;13449;49.374;8.584;2023-03-14T01:16:32;98692.88;;;11.04;100.00
24486;BME280;13449;49.374;8.584;2023-03-14T01:19:00;98700.25;;;11.15;100.00
24486;BME280;13449;49.374;8.584;2023-03-14T01:21:34;98695.16;;;11.19;100.00
24486;BME280;13449;49.374;8.584;2023-03-14T01:24:03;98689.16;;;11.40;99.18
24486;BME280;13449;49.374;8.584;2023-03-14T01:26:32;98682.28;;;11.37;99.78
24486;BME280;13449;49.374;8.584;2023-03-14T01:28:59;98677.28;;;11.34;99.94
24486;BME280;13449;49.374;8.584;2023-03-14T01:31:28;98673.16;;;11.32;100.00
24486;BME280;13449;49.374;8.584;2023-03-14T01:33:57;98673.72;;;11.22;100.00
24486;BME280;13449;49.374;8.584;2023-03-14T01:36:23;98654.28;;;11.30;100.00
24486;BME280;13449;49.374;8.584;2023-03-14T01:38:50;98668.88;;;11.24;100.00
24486;BME280;13449;49.374;8.584;2023-03-14T01:41:22;98654.97;;;11.26;100.00
24486;BME280;13449;49.374;8.584;2023-03-14T01:43:52;98640.84;;;11.29;100.00
24486;BME280;13449;49.374;8.584;2023-03-14T01:46:43;98648.78;;;11.19;100.00
24486;BME280;13449;49.374;8.584;2023-03-14T01:49:27;98640.97;;;11.22;100.00
24486;BME280;13449;49.374;8.584;2023-03-14T01:54:32;98629.59;;;11.25;100.00
24486;BME280;13449;49.374;8.584;2023-03-14T01:57:08;98627.22;;;11.17;100.00
24486;BME280;13449;49.374;8.584;2023-03-14T01:59:38;98620.19;;;11.21;100.00
24486;BME280;13449;49.374;8.584;2023-03-14T02:02:07;98615.59;;;11.22;100.00
24486;BME280;13449;49.374;8.584;2023-03-14T02:04:37;98613.00;;;11.27;99.64
24486;BME280;13449;49.374;8.584;2023-03-14T02:07:27;98601.03;;;11.28;98.76
24486;BME280;13449;49.374;8.584;2023-03-14T02:09:52;98609.19;;;11.16;99.87
24486;BME280;13449;49.374;8.584;2023-03-14T02:12:22;98613.94;;;11.09;100.00
24486;BME280;13449;49.374;8.584;2023-03-14T02:14:49;98605.97;;;11.07;100.00
24486;BME280;13449;49.374;8.584;2023-03-14T02:17:17;98596.50;;;11.22;98.12
24486;BME280;13449;49.374;8.584;2023-03-14T02:20:07;98597.31;;;11.22;98.59
24486;BME280;13449;49.374;8.584;2023-03-14T02:22:38;98600.75;;;11.29;97.84
24486;BME280;13449;49.374;8.584;2023-03-14T02:27:33;98594.94;;;11.26;98.67
24486;BME280;13449;49.374;8.584;2023-03-14T02:30:01;98573.47;;;11.18;98.74
24486;BME280;13449;49.374;8.584;2023-03-14T02:32:32;98574.44;;;11.11;99.15
24486;BME280;13449;49.374;8.584;2023-03-14T02:35:03;98590.69;;;11.18;99.23
24486;BME280;13449;49.374;8.584;2023-03-14T02:37:37;98586.88;;;11.19;98.63
24486;BME280;13449;49.374;8.584;2023-03-14T02:40:07;98573.03;;;11.09;99.75
24486;BME280;13449;49.374;8.584;2023-03-14T02:42:34;98570.28;;;11.09;99.26
24486;BME280;13449;49.374;8.584;2023-03-14T02:47:39;98559.13;;;11.10;98.46
24486;BME280;13449;49.374;8.584;2023-03-14T02:50:13;98574.91;;;11.08;98.56
24486;BME280;13449;49.374;8.584;2023-03-14T02:52:41;98574.44;;;11.11;97.35
24486;BME280;13449;49.374;8.584;2023-03-14T02:55:08;98576.81;;;11.08;97.87
24486;BME280;13449;49.374;8.584;2023-03-14T02:57:35;98576.44;;;11.04;99.05
24486;BME280;13449;49.374;8.584;2023-03-14T03:00:02;98565.75;;;11.03;98.78
24486;BME280;13449;49.374;8.584;2023-03-14T03:02:32;98561.63;;;11.00;99.54
24486;BME280;13449;49.374;8.584;2023-03-14T03:04:59;98566.72;;;10.97;100.00
24486;BME280;13449;49.374;8.584;2023-03-14T03:07:25;98563.84;;;10.92;100.00
24486;BME280;13449;49.374;8.584;2023-03-14T03:09:52;98579.38;;;10.91;100.00
24486;BME280;13449;49.374;8.584;2023-03-14T03:12:18;98558.03;;;10.88;100.00
24486;BME280;13449;49.374;8.584;2023-03-14T03:14:45;98559.72;;;10.89;100.00
24486;BME280;13449;49.374;8.584;2023-03-14T03:17:11;98546.69;;;10.80;100.00
24486;BME280;13449;49.374;8.584;2023-03-14T03:19:38;98549.75;;;10.72;100.00
24486;BME280;13449;49.374;8.584;2023-03-14T03:22:04;98538.22;;;10.70;100.00
24486;BME280;13449;49.374;8.584;2023-03-14T03:24:33;98535.84;;;10.73;100.00
24486;BME280;13449;49.374;8.584;2023-03-14T03:27:02;98525.31;;;10.77;100.00
24486;BME280;13449;49.374;8.584;2023-03-14T03:29:29;98514.16;;;10.66;100.00
24486;BME280;13449;49.374;8.584;2023-03-14T03:31:55;98519.63;;;10.66;100.00
24486;BME280;13449;49.374;8.584;2023-03-14T03:34:24;98521.38;;;10.61;100.00
24486;BME280;13449;49.374;8.584;2023-03-14T03:36:51;98514.75;;;10.68;100.00
24486;BME280;13449;49.374;8.584;2023-03-14T03:39:17;98495.56;;;10.63;100.00
24486;BME280;13449;49.374;8.584;2023-03-14T03:41:44;98494.03;;;10.68;100.00
24486;BME280;13449;49.374;8.584;2023-03-14T03:44:10;98493.91;;;10.62;100.00
24486;BME280;13449;49.374;8.584;2023-03-14T03:46:37;98500.06;;;10.70;100.00
24486;BME280;13449;49.374;8.584;2023-03-14T03:49:06;98488.44;;;10.62;100.00
24486;BME280;13449;49.374;8.584;2023-03-14T03:51:39;98490.00;;;10.70;99.32
24486;BME280;13449;49.374;8.584;2023-03-14T03:54:06;98478.75;;;10.66;99.20
24486;BME280;13449;49.374;8.584;2023-03-14T03:56:32;98482.31;;;10.67;99.27
24486;BME280;13449;49.374;8.584;2023-03-14T03:59:02;98469.50;;;10.68;99.12
24486;BME280;13449;49.374;8.584;2023-03-14T04:01:28;98483.72;;;10.70;98.25
24486;BME280;13449;49.374;8.584;2023-03-14T04:03:55;98482.03;;;10.68;97.94
24486;BME280;13449;49.374;8.584;2023-03-14T04:06:22;98487.06;;;10.72;97.32
24486;BME280;13449;49.374;8.584;2023-03-14T04:08:48;98485.88;;;10.68;97.50
24486;BME280;13449;49.374;8.584;2023-03-14T04:11:15;98497.00;;;10.78;97.01
24486;BME280;13449;49.374;8.584;2023-03-14T04:13:43;98486.72;;;10.80;96.77
24486;BME280;13449;49.374;8.584;2023-03-14T04:16:14;98483.59;;;10.76;96.44
24486;BME280;13449;49.374;8.584;2023-03-14T04:18:41;98484.34;;;10.83;95.21
24486;BME280;13449;49.374;8.584;2023-03-14T04:21:08;98486.94;;;10.78;95.78
24486;BME280;13449;49.374;8.584;2023-03-14T04:23:34;98493.69;;;10.76;96.15
24486;BME280;13449;49.374;8.584;2023-03-14T04:26:01;98500.09;;;10.81;95.11
24486;BME280;13449;49.374;8.584;2023-03-14T04:28:28;98489.31;;;10.86;94.32
24486;BME280;13449;49.374;8.584;2023-03-14T04:30:55;98494.41;;;10.83;95.31
24486;BME280;13449;49.374;8.584;2023-03-14T04:33:21;98477.22;;;10.82;94.82
24486;BME280;13449;49.374;8.584;2023-03-14T04:35:48;98463.72;;;10.76;94.81
24486;BME280;13449;49.374;8.584;2023-03-14T04:38:16;98464.06;;;10.68;95.82
24486;BME280;13449;49.374;8.584;2023-03-14T04:40:43;98459.19;;;10.70;94.67
24486;BME280;13449;49.374;8.584;2023-03-14T04:43:11;98462.38;;;10.66;95.17
24486;BME280;13449;49.374;8.584;2023-03-14T04:45:43;98457.06;;;10.72;94.48
24486;BME280;13449;49.374;8.584;2023-03-14T04:48:09;98452.19;;;10.74;93.63
24486;BME280;13449;49.374;8.584;2023-03-14T04:50:36;98455.06;;;10.79;92.20
24486;BME280;13449;49.374;8.584;2023-03-14T04:53:02;98447.72;;;10.68;92.31
24486;BME280;13449;49.374;8.584;2023-03-14T04:55:28;98455.19;;;10.60;91.73
24486;BME280;13449;49.374;8.584;2023-03-14T04:57:55;98446.16;;;10.60;91.53
24486;BME280;13449;49.374;8.584;2023-03-14T05:00:22;98458.25;;;10.64;91.60
24486;BME280;13449;49.374;8.584;2023-03-14T05:02:50;98447.94;;;10.66;91.70
24486;BME280;13449;49.374;8.584;2023-03-14T05:05:18;98454.00;;;10.68;91.05
24486;BME280;13449;49.374;8.584;2023-03-14T05:07:45;98449.81;;;10.77;89.48
24486;BME280;13449;49.374;8.584;2023-03-14T05:10:11;98440.38;;;10.80;89.29
24486;BME280;13449;49.374;8.584;2023-03-14T05:12:38;98454.00;;;10.80;90.12
24486;BME280;13449;49.374;8.584;2023-03-14T05:15:05;98460.50;;;10.90;87.39
24486;BME280;13449;49.374;8.584;2023-03-14T05:17:34;98458.84;;;10.89;87.68
24486;BME280;13449;49.374;8.584;2023-03-14T05:20:04;98453.88;;;10.86;88.51
24486;BME280;13449;49.374;8.584;2023-03-14T05:22:39;98455.75;;;10.86;87.36
24486;BME280;13449;49.374;8.584;2023-03-14T05:25:06;98457.88;;;10.84;88.01
24486;BME280;13449;49.374;8.584;2023-03-14T05:27:34;98448.91;;;10.83;87.88
24486;BME280;13449;49.374;8.584;2023-03-14T05:30:01;98452.44;;;10.84;87.31
24486;BME280;13449;49.374;8.584;2023-03-14T05:32:31;98453.25;;;10.84;87.15
24486;BME280;13449;49.374;8.584;2023-03-14T05:34:59;98446.53;;;10.87;86.91
24486;BME280;13449;49.374;8.584;2023-03-14T05:37:26;98434.78;;;10.86;86.73
24486;BME280;13449;49.374;8.584;2023-03-14T05:39:53;98430.16;;;10.87;86.55
24486;BME280;13449;49.374;8.584;2023-03-14T05:42:19;98437.72;;;10.96;84.66
24486;BME280;13449;49.374;8.584;2023-03-14T05:44:48;98435.38;;;10.88;85.54
24486;BME280;13449;49.374;8.584;2023-03-14T05:47:15;98434.44;;;10.94;85.16
24486;BME280;13449;49.374;8.584;2023-03-14T05:49:41;98438.44;;;10.92;86.06
24486;BME280;13449;49.374;8.584;2023-03-14T05:52:08;98438.09;;;10.88;85.89
24486;BME280;13449;49.374;8.584;2023-03-14T05:54:37;98438.78;;;10.95;85.22
24486;BME280;13449;49.374;8.584;2023-03-14T05:57:06;98440.81;;;11.00;83.86
24486;BME280;13449;49.374;8.584;2023-03-14T05:59:35;98432.13;;;11.03;83.92
24486;BME280;13449;49.374;8.584;2023-03-14T06:02:01;98426.47;;;11.04;84.54
24486;BME280;13449;49.374;8.584;2023-03-14T06:04:28;98425.06;;;11.02;84.48
24486;BME280;13449;49.374;8.584;2023-03-14T06:06:54;98423.38;;;11.01;85.00
24486;BME280;13449;49.374;8.584;2023-03-14T06:09:21;98437.38;;;11.04;84.09
24486;BME280;13449;49.374;8.584;2023-03-14T06:11:49;98435.56;;;11.10;83.42
24486;BME280;13449;49.374;8.584;2023-03-14T06:14:16;98438.78;;;11.07;84.19
24486;BME280;13449;49.374;8.584;2023-03-14T06:16:43;98433.09;;;11.08;84.11
24486;BME280;13449;49.374;8.584;2023-03-14T06:19:10;98437.84;;;11.13;83.36
24486;BME280;13449;49.374;8.584;2023-03-14T06:21:38;98429.19;;;11.16;84.05
24486;BME280;13449;49.374;8.584;2023-03-14T06:24:08;98424.19;;;11.13;84.78
24486;BME280;13449;49.374;8.584;2023-03-14T06:26:34;98427.38;;;11.10;84.14
24486;BME280;13449;49.374;8.584;2023-03-14T06:29:03;98436.41;;;11.10;83.94
24486;BME280;13449;49.374;8.584;2023-03-14T06:31:31;98421.22;;;11.14;83.01
24486;BME280;13449;49.374;8.584;2023-03-14T06:34:00;98425.84;;;11.14;84.71
24486;BME280;13449;49.374;8.584;2023-03-14T06:36:26;98426.06;;;11.24;82.34
24486;BME280;13449;49.374;8.584;2023-03-14T06:38:53;98434.50;;;11.23;83.42
24486;BME280;13449;49.374;8.584;2023-03-14T06:41:19;98428.06;;;11.29;83.68
24486;BME280;13449;49.374;8.584;2023-03-14T06:43:45;98426.84;;;11.36;83.35
24486;BME280;13449;49.374;8.584;2023-03-14T06:46:12;98428.72;;;11.47;82.14
24486;BME280;13449;49.374;8.584;2023-03-14T06:48:38;98421.63;;;11.46;82.49
24486;BME280;13449;49.374;8.584;2023-03-14T06:51:05;98421.97;;;11.50;82.35
24486;BME280;13449;49.374;8.584;2023-03-14T06:53:35;98418.94;;;11.63;82.29
24486;BME280;13449;49.374;8.584;2023-03-14T06:56:01;98419.28;;;11.67;83.03
24486;BME280;13449;49.374;8.584;2023-03-14T06:58:28;98415.97;;;11.64;81.83
24486;BME280;13449;49.374;8.584;2023-03-14T07:00:54;98419.78;;;11.63;82.03
24486;BME280;13449;49.374;8.584;2023-03-14T07:03:21;98410.41;;;11.59;81.33
24486;BME280;13449;49.374;8.584;2023-03-14T07:05:53;98415.03;;;11.59;80.87
24486;BME280;13449;49.374;8.584;2023-03-14T07:08:19;98425.72;;;11.60;80.99
24486;BME280;13449;49.374;8.584;2023-03-14T07:10:46;98408.16;;;11.56;82.11
24486;BME280;13449;49.374;8.584;2023-03-14T07:13:12;98422.88;;;11.55;81.33
24486;BME280;13449;49.374;8.584;2023-03-14T07:15:39;98432.06;;;11.49;81.60
24486;BME280;13449;49.374;8.584;2023-03-14T07:18:05;98433.94;;;11.49;81.23
24486;BME280;13449;49.374;8.584;2023-03-14T07:20:34;98438.41;;;11.55;81.04
24486;BME280;13449;49.374;8.584;2023-03-14T07:23:01;98429.16;;;11.56;81.19
24486;BME280;13449;49.374;8.584;2023-03-14T07:25:29;98436.41;;;11.62;82.11
24486;BME280;13449;49.374;8.584;2023-03-14T07:27:55;98432.59;;;11.63;80.84
24486;BME280;13449;49.374;8.584;2023-03-14T07:30:22;98439.47;;;11.66;81.00
24486;BME280;13449;49.374;8.584;2023-03-14T07:32:48;98442.78;;;11.68;80.68
24486;BME280;13449;49.374;8.584;2023-03-14T07:35:15;98443.00;;;11.78;80.63
24486;BME280;13449;49.374;8.584;2023-03-14T07:37:42;98439.09;;;11.74;80.90
24486;BME280;13449;49.374;8.584;2023-03-14T07:40:09;98432.06;;;11.78;82.23
24486;BME280;13449;49.374;8.584;2023-03-14T07:42:42;98438.22;;;11.85;81.70
24486;BME280;13449;49.374;8.584;2023-03-14T07:45:09;98454.22;;;11.93;80.28
24486;BME280;13449;49.374;8.584;2023-03-14T07:47:38;98453.75;;;11.96;83.41
24486;BME280;13449;49.374;8.584;2023-03-14T07:50:05;98456.09;;;11.92;81.31
24486;BME280;13449;49.374;8.584;2023-03-14T07:52:32;98442.31;;;11.99;83.85
24486;BME280;13449;49.374;8.584;2023-03-14T07:54:59;98454.09;;;11.99;82.03
24486;BME280;13449;49.374;8.584;2023-03-14T07:57:25;98453.09;;;12.05;81.81
24486;BME280;13449;49.374;8.584;2023-03-14T07:59:54;98447.56;;;12.17;82.14
24486;BME280;13449;49.374;8.584;2023-03-14T08:02:20;98458.66;;;12.27;82.25
24486;BME280;13449;49.374;8.584;2023-03-14T08:04:50;98452.88;;;12.24;81.27
24486;BME280;13449;49.374;8.584;2023-03-14T08:07:17;98452.03;;;12.23;81.75
24486;BME280;13449;49.374;8.584;2023-03-14T08:09:45;98449.22;;;12.18;80.89
24486;BME280;13449;49.374;8.584;2023-03-14T08:12:12;98450.31;;;12.34;80.05
24486;BME280;13449;49.374;8.584;2023-03-14T08:14:39;98441.53;;;12.48;81.12
24486;BME280;13449;49.374;8.584;2023-03-14T08:17:05;98434.03;;;12.55;80.53
24486;BME280;13449;49.374;8.584;2023-03-14T08:19:34;98442.03;;;12.45;78.43
24486;BME280;13449;49.374;8.584;2023-03-14T08:22:00;98442.69;;;12.52;79.10
24486;BME280;13449;49.374;8.584;2023-03-14T08:24:27;98444.09;;;12.72;77.42
24486;BME280;13449;49.374;8.584;2023-03-14T08:26:53;98437.94;;;12.98;76.75
24486;BME280;13449;49.374;8.584;2023-03-14T08:29:20;98441.75;;;13.14;75.02
24486;BME280;13449;49.374;8.584;2023-03-14T08:31:49;98447.84;;;13.21;74.47
24486;BME280;13449;49.374;8.584;2023-03-14T08:34:15;98444.13;;;13.48;73.05
24486;BME280;13449;49.374;8.584;2023-03-14T08:36:44;98446.13;;;13.80;73.64
24486;BME280;13449;49.374;8.584;2023-03-14T08:39:11;98450.69;;;13.96;72.60
24486;BME280;13449;49.374;8.584;2023-03-14T08:41:40;98459.75;;;13.96;71.92
24486;BME280;13449;49.374;8.584;2023-03-14T08:44:09;98463.34;;;13.75;71.52
24486;BME280;13449;49.374;8.584;2023-03-14T08:46:36;98451.31;;;13.54;71.79
24486;BME280;13449;49.374;8.584;2023-03-14T08:49:03;98468.13;;;13.63;71.49
24486;BME280;13449;49.374;8.584;2023-03-14T08:51:29;98461.91;;;13.68;72.19
24486;BME280;13449;49.374;8.584;2023-03-14T08:53:58;98456.78;;;13.54;73.25
24486;BME280;13449;49.374;8.584;2023-03-14T08:56:24;98478.13;;;13.31;74.01
24486;BME280;13449;49.374;8.584;2023-03-14T08:58:51;98467.94;;;13.26;73.99
24486;BME280;13449;49.374;8.584;2023-03-14T09:01:17;98481.00;;;13.41;73.94
24486;BME280;13449;49.374;8.584;2023-03-14T09:03:47;98481.19;;;13.34;74.59
24486;BME280;13449;49.374;8.584;2023-03-14T09:06:17;98480.06;;;13.14;75.62
24486;BME280;13449;49.374;8.584;2023-03-14T09:08:46;98487.25;;;13.03;74.60
24486;BME280;13449;49.374;8.584;2023-03-14T09:11:13;98487.81;;;13.05;75.12
24486;BME280;13449;49.374;8.584;2023-03-14T09:13:42;98488.16;;;13.08;76.05
24486;BME280;13449;49.374;8.584;2023-03-14T09:16:09;98496.34;;;13.08;75.44
24486;BME280;13449;49.374;8.584;2023-03-14T09:18:38;98494.72;;;13.07;75.64
24486;BME280;13449;49.374;8.584;2023-03-14T09:21:05;98504.22;;;13.05;76.26
24486;BME280;13449;49.374;8.584;2023-03-14T09:23:31;98490.41;;;12.95;76.82
24486;BME280;13449;49.374;8.584;2023-03-14T09:26:00;98493.97;;;12.95;76.89
24486;BME280;13449;49.374;8.584;2023-03-14T09:28:27;98505.50;;;12.81;76.52
24486;BME280;13449;49.374;8.584;2023-03-14T09:30:54;98498.47;;;12.85;76.88
24486;BME280;13449;49.374;8.584;2023-03-14T09:33:20;98502.13;;;12.74;77.18
24486;BME280;13449;49.374;8.584;2023-03-14T09:35:47;98498.97;;;12.82;76.83
24486;BME280;13449;49.374;8.584;2023-03-14T09:38:16;98500.13;;;12.86;77.04
24486;BME280;13449;49.374;8.584;2023-03-14T09:40:42;98491.91;;;13.02;76.35
24486;BME280;13449;49.374;8.584;2023-03-14T09:43:12;98491.34;;;13.00;75.86
24486;BME280;13449;49.374;8.584;2023-03-14T09:45:41;98497.13;;;13.04;75.05
24486;BME280;13449;49.374;8.584;2023-03-14T09:48:20;98497.69;;;13.06;74.99
24486;BME280;13449;49.374;8.584;2023-03-14T09:50:50;98491.59;;;13.16;75.36
24486;BME280;13449;49.374;8.584;2023-03-14T09:53:19;98495.97;;;13.17;74.29
24486;BME280;13449;49.374;8.584;2023-03-14T09:55:49;98478.75;;;13.38;75.71
24486;BME280;13449;49.374;8.584;2023-03-14T09:58:23;98486.78;;;13.44;75.26
24486;BME280;13449;49.374;8.584;2023-03-14T10:00:52;98484.03;;;13.44;75.90
24486;BME280;13449;49.374;8.584;2023-03-14T10:05:55;98480.28;;;13.50;75.88
24486;BME280;13449;49.374;8.584;2023-03-14T10:08:22;98480.91;;;13.57;75.98
24486;BME280;13449;49.374;8.584;2023-03-14T10:10:49;98480.50;;;13.27;77.06
24486;BME280;13449;49.374;8.584;2023-03-14T10:16:02;98470.34;;;13.06;80.46
24486;BME280;13449;49.374;8.584;2023-03-14T10:18:31;98471.34;;;13.17;79.85
24486;BME280;13449;49.374;8.584;2023-03-14T10:21:17;98486.16;;;13.37;79.05
24486;BME280;13449;49.374;8.584;2023-03-14T10:23:47;98493.19;;;13.33;78.40
24486;BME280;13449;49.374;8.584;2023-03-14T10:26:17;98482.81;;;13.35;79.36
24486;BME280;13449;49.374;8.584;2023-03-14T10:28:51;98489.59;;;13.11;78.57
24486;BME280;13449;49.374;8.584;2023-03-14T10:31:24;98494.31;;;12.99;79.09
24486;BME280;13449;49.374;8.584;2023-03-14T10:34:12;98483.72;;;12.86;79.75
24486;BME280;13449;49.374;8.584;2023-03-14T10:36:42;98472.28;;;12.89;81.21
24486;BME280;13449;49.374;8.584;2023-03-14T10:42:06;98488.44;;;12.74;82.88
24486;BME280;13449;49.374;8.584;2023-03-14T10:44:39;98487.63;;;12.73;85.67
24486;BME280;13449;49.374;8.584;2023-03-14T10:47:17;98487.53;;;12.68;85.12
24486;BME280;13449;49.374;8.584;2023-03-14T10:49:45;98492.41;;;12.49;85.41
24486;BME280;13449;49.374;8.584;2023-03-14T10:55:01;98486.88;;;12.44;85.71
24486;BME280;13449;49.374;8.584;2023-03-14T10:57:28;98492.31;;;12.44;86.68
24486;BME280;13449;49.374;8.584;2023-03-14T10:59:56;98491.63;;;12.37;86.92
24486;BME280;13449;49.374;8.584;2023-03-14T11:08:07;98490.59;;;12.10;91.47
24486;BME280;13449;49.374;8.584;2023-03-14T11:10:38;98497.63;;;12.06;92.63
24486;BME280;13449;49.374;8.584;2023-03-14T11:13:19;98512.84;;;12.02;92.40
24486;BME280;13449;49.374;8.584;2023-03-14T11:16:27;98505.53;;;11.91;92.50
24486;BME280;13449;49.374;8.584;2023-03-14T11:19:22;98509.81;;;11.87;92.68
24486;BME280;13449;49.374;8.584;2023-03-14T11:24:42;98515.16;;;11.82;93.56
24486;BME280;13449;49.374;8.584;2023-03-14T11:27:22;98501.16;;;11.78;92.71
24486;BME280;13449;49.374;8.584;2023-03-14T11:35:37;98529.13;;;11.97;91.84
24486;BME280;13449;49.374;8.584;2023-03-14T11:38:15;98532.81;;;12.02;91.61
24486;BME280;13449;49.374;8.584;2023-03-14T11:40:42;98531.63;;;11.98;92.10
24486;BME280;13449;49.374;8.584;2023-03-14T11:43:30;98540.03;;;11.97;92.37
24486;BME280;13449;49.374;8.584;2023-03-14T11:46:04;98556.72;;;11.84;91.77
24486;BME280;13449;49.374;8.584;2023-03-14T11:48:39;98573.69;;;11.74;91.82
24486;BME280;13449;49.374;8.584;2023-03-14T11:51:14;98573.00;;;11.79;90.68
24486;BME280;13449;49.374;8.584;2023-03-14T11:53:53;98573.69;;;11.86;88.69
24486;BME280;13449;49.374;8.584;2023-03-14T11:56:27;98594.19;;;12.00;86.34
24486;BME280;13449;49.374;8.584;2023-03-14T11:59:09;98609.63;;;12.06;83.76
24486;BME280;13449;49.374;8.584;2023-03-14T12:02:12;98633.16;;;12.07;81.42
24486;BME280;13449;49.374;8.584;2023-03-14T12:07:20;98642.91;;;11.91;83.69
24486;BME280;13449;49.374;8.584;2023-03-14T12:09:49;98643.84;;;11.85;84.53
24486;BME280;13449;49.374;8.584;2023-03-14T12:12:20;98666.50;;;11.62;82.97
24486;BME280;13449;49.374;8.584;2023-03-14T12:14:54;98675.16;;;11.59;82.61
24486;BME280;13449;49.374;8.584;2023-03-14T12:17:24;98696.41;;;11.57;80.72
24486;BME280;13449;49.374;8.584;2023-03-14T12:22:42;98728.69;;;11.60;78.76
24486;BME280;13449;49.374;8.584;2023-03-14T12:30:17;98761.31;;;11.55;79.05
24486;BME280;13449;49.374;8.584;2023-03-14T12:38:09;98777.84;;;11.19;79.26
24486;BME280;13449;49.374;8.584;2023-03-14T12:40:42;98794.06;;;11.14;79.19
24486;BME280;13449;49.374;8.584;2023-03-14T12:43:28;98801.44;;;10.95;81.22
24486;BME280;13449;49.374;8.584;2023-03-14T12:48:49;98819.81;;;10.52;83.34
24486;BME280;13449;49.374;8.584;2023-03-14T12:51:19;98830.63;;;10.40;82.99
24486;BME280;13449;49.374;8.584;2023-03-14T12:59:05;98870.63;;;10.22;79.61
24486;BME280;13449;49.374;8.584;2023-03-14T13:01:35;98890.84;;;10.32;78.53
24486;BME280;13449;49.374;8.584;2023-03-14T13:04:07;98893.72;;;10.37;77.22
24486;BME280;13449;49.374;8.584;2023-03-14T13:06:53;98907.84;;;10.52;75.79
24486;BME280;13449;49.374;8.584;2023-03-14T13:11:56;98927.50;;;10.79;71.61
24486;BME280;13449;49.374;8.584;2023-03-14T13:14:29;98939.38;;;11.03;71.52
24486;BME280;13449;49.374;8.584;2023-03-14T13:17:00;98959.25;;;11.28;69.70
24486;BME280;13449;49.374;8.584;2023-03-14T13:19:51;98961.72;;;11.48;69.13
24486;BME280;13449;49.374;8.584;2023-03-14T13:22:27;98997.13;;;11.36;67.09
24486;BME280;13449;49.374;8.584;2023-03-14T13:25:07;99004.72;;;11.34;65.97
24486;BME280;13449;49.374;8.584;2023-03-14T13:27:36;99010.09;;;11.41;65.93
24486;BME280;13449;49.374;8.584;2023-03-14T13:30:27;99045.50;;;11.29;64.42
24486;BME280;13449;49.374;8.584;2023-03-14T13:32:55;99038.53;;;11.33;64.70
24486;BME280;13449;49.374;8.584;2023-03-14T13:35:27;99037.38;;;11.41;64.29
24486;BME280;13449;49.374;8.584;2023-03-14T13:37:56;99046.03;;;11.38;64.14
24486;BME280;13449;49.374;8.584;2023-03-14T13:40:37;99031.72;;;11.42;65.19
24486;BME280;13449;49.374;8.584;2023-03-14T13:43:23;99054.31;;;11.31;64.50
24486;BME280;13449;49.374;8.584;2023-03-14T13:48:44;99083.84;;;11.34;63.00
24486;BME280;13449;49.374;8.584;2023-03-14T13:51:13;99115.13;;;11.56;60.74
24486;BME280;13449;49.374;8.584;2023-03-14T13:53:52;99108.63;;;11.94;62.01
24486;BME280;13449;49.374;8.584;2023-03-14T13:56:21;99172.75;;;11.91;57.96
24486;BME280;13449;49.374;8.584;2023-03-14T13:58:50;99171.63;;;11.81;57.95
24486;BME280;13449;49.374;8.584;2023-03-14T14:01:20;99185.97;;;11.70;58.94
24486;BME280;13449;49.374;8.584;2023-03-14T14:03:51;99217.28;;;11.67;56.64
24486;BME280;13449;49.374;8.584;2023-03-14T14:06:32;99261.81;;;11.43;55.79
24486;BME280;13449;49.374;8.584;2023-03-14T14:09:10;99295.91;;;11.27;52.27
24486;BME280;13449;49.374;8.584;2023-03-14T14:11:59;99290.22;;;11.35;53.96